createdAt,value
2018-07-20T00:00:45.667Z,22.35
2018-07-20T00:01:45.720Z,22.3
2018-07-20T00:02:45.812Z,22.35
2018-07-20T00:03:45.634Z,22.35
2018-07-20T00:04:55.731Z,22.35
2018-07-20T00:05:46.010Z,22.32
2018-07-20T00:06:46.011Z,22.33
2018-07-20T00:07:45.799Z,22.33
2018-07-20T00:08:45.861Z,22.35
2018-07-20T00:09:45.809Z,22.35
2018-07-20T00:10:45.907Z,22.35
2018-07-20T00:11:45.939Z,22.33
2018-07-20T00:12:45.795Z,22.33
2018-07-20T00:13:45.597Z,22.33
2018-07-20T00:14:45.739Z,22.33
2018-07-20T00:15:45.876Z,22.33
2018-07-20T00:16:46.560Z,22.35
2018-07-20T00:17:45.913Z,22.38
2018-07-20T00:18:45.833Z,22.35
2018-07-20T00:19:45.717Z,22.35
2018-07-20T00:20:45.788Z,22.36
2018-07-20T00:21:45.774Z,22.33
2018-07-20T00:22:45.654Z,22.36
2018-07-20T00:23:45.851Z,22.35
2018-07-20T00:24:45.674Z,22.36
2018-07-20T00:25:45.584Z,22.38
2018-07-20T00:26:45.738Z,22.36
2018-07-20T00:27:45.900Z,22.36
2018-07-20T00:28:45.618Z,22.35
2018-07-20T00:29:45.690Z,22.36
2018-07-20T00:30:45.688Z,22.36
2018-07-20T00:31:45.690Z,22.36
2018-07-20T00:32:45.706Z,22.35
2018-07-20T00:33:45.605Z,22.36
2018-07-20T00:34:45.817Z,22.36
2018-07-20T00:35:45.870Z,22.33
2018-07-20T00:36:45.657Z,22.38
2018-07-20T00:37:45.720Z,22.33
2018-07-20T00:38:45.813Z,22.36
2018-07-20T00:39:45.723Z,22.35
2018-07-20T00:40:46.043Z,22.36
2018-07-20T00:41:45.898Z,22.35
2018-07-20T00:42:45.754Z,22.35
2018-07-20T00:43:45.922Z,22.35
2018-07-20T00:44:45.685Z,22.33
2018-07-20T00:45:45.760Z,22.35
2018-07-20T00:46:45.817Z,22.35
2018-07-20T00:47:45.699Z,22.35
2018-07-20T00:48:45.716Z,22.38
2018-07-20T00:49:45.732Z,22.36
2018-07-20T00:50:45.695Z,22.33
2018-07-20T00:51:45.936Z,22.35
2018-07-20T00:52:45.866Z,22.35
2018-07-20T00:53:45.637Z,22.35
2018-07-20T00:54:45.674Z,22.36
2018-07-20T00:55:45.753Z,22.35
2018-07-20T00:56:45.785Z,22.33
2018-07-20T00:57:46.044Z,22.35
2018-07-20T00:58:45.876Z,22.33
2018-07-20T00:59:45.796Z,22.35
2018-07-20T01:00:45.631Z,22.35
2018-07-20T01:01:45.793Z,22.33
2018-07-20T01:02:45.688Z,22.35
2018-07-20T01:03:45.882Z,22.33
2018-07-20T01:04:45.759Z,22.32
2018-07-20T01:05:45.894Z,22.35
2018-07-20T01:06:45.948Z,22.35
2018-07-20T01:07:45.782Z,22.32
2018-07-20T01:08:45.669Z,22.35
2018-07-20T01:09:45.804Z,22.36
2018-07-20T01:10:45.677Z,22.35
2018-07-20T01:11:45.765Z,22.35
2018-07-20T01:12:45.876Z,22.36
2018-07-20T01:13:45.730Z,22.35
2018-07-20T01:14:45.760Z,22.33
2018-07-20T01:15:45.759Z,22.33
2018-07-20T01:16:45.955Z,22.32
2018-07-20T01:17:45.856Z,22.33
2018-07-20T01:18:45.772Z,22.32
2018-07-20T01:19:45.729Z,22.33
2018-07-20T01:20:45.738Z,22.33
2018-07-20T01:21:45.963Z,22.33
2018-07-20T01:22:45.732Z,22.33
2018-07-20T01:23:45.785Z,22.32
2018-07-20T01:24:45.795Z,22.33
2018-07-20T01:25:45.816Z,22.32
2018-07-20T01:26:45.706Z,22.35
2018-07-20T01:27:45.780Z,22.35
2018-07-20T01:28:45.705Z,22.33
2018-07-20T01:29:45.674Z,22.35
2018-07-20T01:30:45.746Z,22.33
2018-07-20T01:31:45.712Z,22.32
2018-07-20T01:32:45.789Z,22.3
2018-07-20T01:33:45.738Z,22.33
2018-07-20T01:34:45.865Z,22.33
2018-07-20T01:35:45.698Z,22.35
2018-07-20T01:36:45.800Z,22.3
2018-07-20T01:37:45.801Z,22.33
2018-07-20T01:38:45.742Z,22.33
2018-07-20T01:39:45.681Z,22.32
2018-07-20T01:40:45.580Z,22.33
2018-07-20T01:41:45.756Z,22.3
2018-07-20T01:42:45.615Z,22.32
2018-07-20T01:43:45.639Z,22.33
2018-07-20T01:44:45.863Z,22.33
2018-07-20T01:45:45.661Z,22.3
2018-07-20T01:46:45.708Z,22.32
2018-07-20T01:47:45.843Z,22.3
2018-07-20T01:48:45.733Z,22.33
2018-07-20T01:49:45.634Z,22.32
2018-07-20T01:50:45.709Z,22.33
2018-07-20T01:51:45.770Z,22.33
2018-07-20T01:52:45.688Z,22.32
2018-07-20T01:53:45.591Z,22.33
2018-07-20T01:54:45.708Z,22.32
2018-07-20T01:55:45.858Z,22.32
2018-07-20T01:56:45.739Z,22.33
2018-07-20T01:57:45.752Z,22.32
2018-07-20T01:58:45.831Z,22.3
2018-07-20T01:59:45.722Z,22.32
2018-07-20T02:00:45.702Z,22.32
2018-07-20T02:01:45.789Z,22.35
2018-07-20T02:02:46.035Z,22.33
2018-07-20T02:03:45.701Z,22.32
2018-07-20T02:04:45.738Z,22.32
2018-07-20T02:05:45.617Z,22.32
2018-07-20T02:06:46.069Z,22.3
2018-07-20T02:07:45.674Z,22.32
2018-07-20T02:08:45.789Z,22.32
2018-07-20T02:09:45.755Z,22.33
2018-07-20T02:10:45.778Z,22.3
2018-07-20T02:11:45.905Z,22.33
2018-07-20T02:12:45.714Z,22.32
2018-07-20T02:13:45.743Z,22.32
2018-07-20T02:14:45.925Z,22.35
2018-07-20T02:15:45.863Z,22.32
2018-07-20T02:16:45.888Z,22.32
2018-07-20T02:17:46.007Z,22.33
2018-07-20T02:18:46.007Z,22.32
2018-07-20T02:19:45.704Z,22.32
2018-07-20T02:20:45.720Z,22.33
2018-07-20T02:21:45.701Z,22.32
2018-07-20T02:22:46.004Z,22.3
2018-07-20T02:23:45.955Z,22.32
2018-07-20T02:24:45.780Z,22.3
2018-07-20T02:25:45.575Z,22.3
2018-07-20T02:26:45.605Z,22.32
2018-07-20T02:27:45.817Z,22.29
2018-07-20T02:28:45.828Z,22.3
2018-07-20T02:29:45.655Z,22.29
2018-07-20T02:30:45.808Z,22.3
2018-07-20T02:31:45.766Z,22.3
2018-07-20T02:32:45.711Z,22.3
2018-07-20T02:33:45.867Z,22.3
2018-07-20T02:34:45.727Z,22.32
2018-07-20T02:35:46.067Z,22.32
2018-07-20T02:36:45.808Z,22.3
2018-07-20T02:37:45.811Z,22.32
2018-07-20T02:38:45.684Z,22.3
2018-07-20T02:39:45.820Z,22.33
2018-07-20T02:40:46.019Z,22.3
2018-07-20T02:41:46.122Z,22.3
2018-07-20T02:42:45.698Z,22.3
2018-07-20T02:43:45.670Z,22.33
2018-07-20T02:44:45.694Z,22.32
2018-07-20T02:45:45.907Z,22.3
2018-07-20T02:46:45.766Z,22.33
2018-07-20T02:47:45.704Z,22.32
2018-07-20T02:48:45.785Z,22.35
2018-07-20T02:49:45.778Z,22.3
2018-07-20T02:50:45.836Z,22.3
2018-07-20T02:51:45.603Z,22.29
2018-07-20T02:52:45.695Z,22.3
2018-07-20T02:53:45.593Z,22.29
2018-07-20T02:54:45.573Z,22.33
2018-07-20T02:55:45.825Z,22.33
2018-07-20T02:56:45.863Z,22.29
2018-07-20T02:57:45.717Z,22.29
2018-07-20T02:58:45.691Z,22.32
2018-07-20T02:59:45.617Z,22.29
2018-07-20T03:00:45.584Z,22.3
2018-07-20T03:01:45.707Z,22.32
2018-07-20T03:02:45.703Z,22.29
2018-07-20T03:03:45.601Z,22.3
2018-07-20T03:04:45.619Z,22.3
2018-07-20T03:05:45.810Z,22.3
2018-07-20T03:06:45.790Z,22.3
2018-07-20T03:07:45.767Z,22.29
2018-07-20T03:08:45.813Z,22.3
2018-07-20T03:09:45.710Z,22.29
2018-07-20T03:10:45.663Z,22.33
2018-07-20T03:11:45.819Z,22.29
2018-07-20T03:12:45.994Z,22.29
2018-07-20T03:13:45.814Z,22.3
2018-07-20T03:14:45.819Z,22.29
2018-07-20T03:15:45.929Z,22.29
2018-07-20T03:16:45.769Z,22.32
2018-07-20T03:17:45.714Z,22.3
2018-07-20T03:18:45.684Z,22.29
2018-07-20T03:19:45.749Z,22.29
2018-07-20T03:20:45.914Z,22.28
2018-07-20T03:21:45.809Z,22.33
2018-07-20T03:22:45.817Z,22.3
2018-07-20T03:23:45.815Z,22.29
2018-07-20T03:24:45.698Z,22.29
2018-07-20T03:25:45.882Z,22.33
2018-07-20T03:26:45.940Z,22.3
2018-07-20T03:27:45.687Z,22.3
2018-07-20T03:28:45.599Z,22.3
2018-07-20T03:29:45.768Z,22.3
2018-07-20T03:30:45.775Z,22.3
2018-07-20T03:31:45.698Z,22.29
2018-07-20T03:32:46.451Z,22.28
2018-07-20T03:33:45.733Z,22.29
2018-07-20T03:34:45.671Z,22.32
2018-07-20T03:35:45.907Z,22.29
2018-07-20T03:36:45.754Z,22.3
2018-07-20T03:37:45.550Z,22.3
2018-07-20T03:38:45.816Z,22.28
2018-07-20T03:39:45.773Z,22.26
2018-07-20T03:40:45.799Z,22.29
2018-07-20T03:41:45.574Z,22.29
2018-07-20T03:42:45.765Z,22.23
2018-07-20T03:43:45.542Z,22.26
2018-07-20T03:44:45.692Z,22.29
2018-07-20T03:45:45.702Z,22.3
2018-07-20T03:46:45.649Z,22.28
2018-07-20T03:47:45.665Z,22.28
2018-07-20T03:48:45.704Z,22.28
2018-07-20T03:49:45.681Z,22.26
2018-07-20T03:50:45.739Z,22.3
2018-07-20T03:51:45.814Z,22.28
2018-07-20T03:52:45.742Z,22.29
2018-07-20T03:53:45.657Z,22.26
2018-07-20T03:54:45.550Z,22.28
2018-07-20T03:55:45.619Z,22.28
2018-07-20T03:56:45.783Z,22.26
2018-07-20T03:57:45.859Z,22.29
2018-07-20T03:58:45.801Z,22.28
2018-07-20T03:59:45.873Z,22.28
2018-07-20T04:00:45.708Z,22.29
2018-07-20T04:01:45.763Z,22.3
2018-07-20T04:02:45.757Z,22.29
2018-07-20T04:03:45.752Z,22.28
2018-07-20T04:04:45.607Z,22.28
2018-07-20T04:05:45.799Z,22.28
2018-07-20T04:06:45.633Z,22.3
2018-07-20T04:07:45.629Z,22.32
2018-07-20T04:08:45.790Z,22.29
2018-07-20T04:09:45.797Z,22.26
2018-07-20T04:10:45.677Z,22.26
2018-07-20T04:11:45.752Z,22.26
2018-07-20T04:12:45.629Z,22.29
2018-07-20T04:13:45.515Z,22.28
2018-07-20T04:14:45.577Z,22.28
2018-07-20T04:15:45.516Z,22.28
2018-07-20T04:16:45.730Z,22.29
2018-07-20T04:17:45.784Z,22.26
2018-07-20T04:18:45.589Z,22.29
2018-07-20T04:19:45.823Z,22.3
2018-07-20T04:20:45.781Z,22.29
2018-07-20T04:21:45.674Z,22.28
2018-07-20T04:22:45.706Z,22.29
2018-07-20T04:23:45.764Z,22.29
2018-07-20T04:24:45.879Z,22.28
2018-07-20T04:25:45.741Z,22.29
2018-07-20T04:26:45.727Z,22.28
2018-07-20T04:27:45.930Z,22.3
2018-07-20T04:28:45.603Z,22.29
2018-07-20T04:29:45.758Z,22.29
2018-07-20T04:30:45.855Z,22.28
2018-07-20T04:31:45.627Z,22.29
2018-07-20T04:32:45.900Z,22.28
2018-07-20T04:33:45.680Z,22.28
2018-07-20T04:34:45.662Z,22.28
2018-07-20T04:35:45.783Z,22.26
2018-07-20T04:36:45.909Z,22.29
2018-07-20T04:37:45.728Z,22.28
2018-07-20T04:38:45.550Z,22.29
2018-07-20T04:39:45.721Z,22.29
2018-07-20T04:40:45.680Z,22.26
2018-07-20T04:41:45.705Z,22.29
2018-07-20T04:42:45.642Z,22.29
2018-07-20T04:43:46.180Z,22.28
2018-07-20T04:44:45.764Z,22.29
2018-07-20T04:45:45.804Z,22.28
2018-07-20T04:46:45.563Z,22.29
2018-07-20T04:47:45.979Z,22.26
2018-07-20T04:48:45.646Z,22.29
2018-07-20T04:49:45.723Z,22.29
2018-07-20T04:50:45.643Z,22.28
2018-07-20T04:51:45.612Z,22.28
2018-07-20T04:52:45.780Z,22.29
2018-07-20T04:53:45.632Z,22.29
2018-07-20T04:54:45.750Z,22.26
2018-07-20T04:55:45.700Z,22.28
2018-07-20T04:56:45.834Z,22.29
2018-07-20T04:57:45.565Z,22.26
2018-07-20T04:58:46.080Z,22.26
2018-07-20T04:59:45.515Z,22.28
2018-07-20T05:00:45.611Z,22.29
2018-07-20T05:01:45.658Z,22.26
2018-07-20T05:02:45.700Z,22.25
2018-07-20T05:03:46.555Z,22.28
2018-07-20T05:04:45.928Z,22.28
2018-07-20T05:05:45.862Z,22.26
2018-07-20T05:06:45.616Z,22.26
2018-07-20T05:07:45.881Z,22.28
2018-07-20T05:08:45.799Z,22.28
2018-07-20T05:09:45.751Z,22.28
2018-07-20T05:10:45.770Z,22.26
2018-07-20T05:11:45.786Z,22.28
2018-07-20T05:12:45.653Z,22.26
2018-07-20T05:13:45.934Z,22.28
2018-07-20T05:14:45.650Z,22.26
2018-07-20T05:15:45.773Z,22.26
2018-07-20T05:16:45.691Z,22.28
2018-07-20T05:17:45.713Z,22.26
2018-07-20T05:18:45.545Z,22.28
2018-07-20T05:19:45.683Z,22.26
2018-07-20T05:20:45.734Z,22.26
2018-07-20T05:21:45.880Z,22.26
2018-07-20T05:22:45.615Z,22.28
2018-07-20T05:23:45.624Z,22.29
2018-07-20T05:24:45.761Z,22.26
2018-07-20T05:25:45.533Z,22.26
2018-07-20T05:26:45.767Z,22.25
2018-07-20T05:27:45.658Z,22.25
2018-07-20T05:28:45.688Z,22.26
2018-07-20T05:29:45.744Z,22.26
2018-07-20T05:30:45.786Z,22.23
2018-07-20T05:31:45.670Z,22.25
2018-07-20T05:32:45.596Z,22.26
2018-07-20T05:33:45.704Z,22.28
2018-07-20T05:34:45.527Z,22.26
2018-07-20T05:35:45.705Z,22.23
2018-07-20T05:36:45.595Z,22.26
2018-07-20T05:37:45.626Z,22.26
2018-07-20T05:38:45.646Z,22.25
2018-07-20T05:39:45.840Z,22.26
2018-07-20T05:40:45.793Z,22.25
2018-07-20T05:41:45.728Z,22.26
2018-07-20T05:42:45.648Z,22.23
2018-07-20T05:43:45.780Z,22.25
2018-07-20T05:44:45.634Z,22.23
2018-07-20T05:45:45.820Z,22.25
2018-07-20T05:46:45.808Z,22.26
2018-07-20T05:47:45.636Z,22.25
2018-07-20T05:48:45.641Z,22.25
2018-07-20T05:49:45.761Z,22.25
2018-07-20T05:50:45.729Z,22.25
2018-07-20T05:51:45.780Z,22.23
2018-07-20T05:52:45.771Z,22.25
2018-07-20T05:53:45.637Z,22.23
2018-07-20T05:54:45.530Z,22.26
2018-07-20T05:55:45.588Z,22.25
2018-07-20T05:56:45.706Z,22.23
2018-07-20T05:57:45.754Z,22.22
2018-07-20T05:58:45.818Z,22.23
2018-07-20T05:59:45.739Z,22.25
2018-07-20T06:00:45.677Z,22.23
2018-07-20T06:01:45.734Z,22.23
2018-07-20T06:02:45.913Z,22.25
2018-07-20T06:03:45.549Z,22.23
2018-07-20T06:04:45.704Z,22.26
2018-07-20T06:05:45.950Z,22.23
2018-07-20T06:06:45.820Z,22.25
2018-07-20T06:07:45.688Z,22.26
2018-07-20T06:08:45.636Z,22.26
2018-07-20T06:09:45.661Z,22.25
2018-07-20T06:10:45.682Z,22.23
2018-07-20T06:11:45.753Z,22.26
2018-07-20T06:12:45.756Z,22.25
2018-07-20T06:13:45.589Z,22.26
2018-07-20T06:14:45.579Z,22.22
2018-07-20T06:15:45.717Z,22.23
2018-07-20T06:16:45.739Z,22.23
2018-07-20T06:17:45.805Z,22.22
2018-07-20T06:18:45.874Z,22.26
2018-07-20T06:19:45.749Z,22.25
2018-07-20T06:20:45.731Z,22.23
2018-07-20T06:22:07.735Z,22.25
2018-07-20T06:22:45.661Z,22.25
2018-07-20T06:23:46.191Z,22.22
2018-07-20T06:24:55.678Z,22.21
2018-07-20T06:25:47.326Z,22.26
2018-07-20T06:26:45.547Z,22.22
2018-07-20T06:27:45.688Z,22.22
2018-07-20T06:28:45.688Z,22.23
2018-07-20T06:29:45.767Z,22.22
2018-07-20T06:30:45.662Z,22.25
2018-07-20T06:31:45.726Z,22.22
2018-07-20T06:32:45.657Z,22.22
2018-07-20T06:33:45.489Z,22.23
2018-07-20T06:34:45.632Z,22.23
2018-07-20T06:35:45.572Z,22.22
2018-07-20T06:36:45.764Z,22.22
2018-07-20T06:37:45.537Z,22.23
2018-07-20T06:38:45.672Z,22.23
2018-07-20T06:39:45.713Z,22.21
2018-07-20T06:40:46.023Z,22.23
2018-07-20T06:41:45.572Z,22.25
2018-07-20T06:42:45.527Z,22.23
2018-07-20T06:43:45.551Z,22.22
2018-07-20T06:44:45.826Z,22.22
2018-07-20T06:45:45.544Z,22.25
2018-07-20T06:46:45.690Z,22.23
2018-07-20T06:47:45.560Z,22.23
2018-07-20T06:48:45.693Z,22.22
2018-07-20T06:49:46.204Z,22.22
2018-07-20T06:50:45.885Z,22.22
2018-07-20T06:51:45.515Z,22.23
2018-07-20T06:52:45.820Z,22.22
2018-07-20T06:53:45.711Z,22.21
2018-07-20T06:54:45.668Z,22.23
2018-07-20T06:55:46.071Z,22.23
2018-07-20T06:56:45.784Z,22.23
2018-07-20T06:57:45.743Z,22.23
2018-07-20T06:58:45.579Z,22.22
2018-07-20T06:59:45.867Z,22.23
2018-07-20T07:00:45.575Z,22.25
2018-07-20T07:01:45.773Z,22.22
2018-07-20T07:02:45.706Z,22.23
2018-07-20T07:03:45.529Z,22.25
2018-07-20T07:04:45.731Z,22.23
2018-07-20T07:05:45.715Z,22.21
2018-07-20T07:06:45.719Z,22.21
2018-07-20T07:07:45.676Z,22.22
2018-07-20T07:08:45.689Z,22.22
2018-07-20T07:09:45.491Z,22.22
2018-07-20T07:10:45.610Z,22.21
2018-07-20T07:11:45.813Z,22.22
2018-07-20T07:12:45.586Z,22.23
2018-07-20T07:13:45.656Z,22.22
2018-07-20T07:14:46.048Z,22.22
2018-07-20T07:15:45.739Z,22.22
2018-07-20T07:16:45.720Z,22.23
2018-07-20T07:17:45.515Z,22.21
2018-07-20T07:18:45.689Z,22.22
2018-07-20T07:19:45.680Z,22.23
2018-07-20T07:20:45.792Z,22.22
2018-07-20T07:21:45.780Z,22.19
2018-07-20T07:22:45.593Z,22.23
2018-07-20T07:23:46.433Z,22.21
2018-07-20T07:24:45.688Z,22.22
2018-07-20T07:25:45.561Z,22.23
2018-07-20T07:26:45.683Z,22.21
2018-07-20T07:27:45.720Z,22.23
2018-07-20T07:28:45.748Z,22.22
2018-07-20T07:29:45.720Z,22.21
2018-07-20T07:30:45.926Z,22.25
2018-07-20T07:31:45.855Z,22.22
2018-07-20T07:32:45.815Z,22.21
2018-07-20T07:33:45.735Z,22.21
2018-07-20T07:34:45.672Z,22.22
2018-07-20T07:35:46.135Z,22.19
2018-07-20T07:36:45.507Z,22.22
2018-07-20T07:37:45.578Z,22.23
2018-07-20T07:38:45.716Z,22.21
2018-07-20T07:39:45.667Z,22.22
2018-07-20T07:40:45.681Z,22.23
2018-07-20T07:41:45.550Z,22.23
2018-07-20T07:42:45.765Z,22.23
2018-07-20T07:43:45.726Z,22.23
2018-07-20T07:44:45.682Z,22.22
2018-07-20T07:45:45.590Z,22.22
2018-07-20T07:46:45.809Z,22.22
2018-07-20T07:47:45.655Z,22.21
2018-07-20T07:48:45.742Z,22.22
2018-07-20T07:49:45.706Z,22.23
2018-07-20T07:50:45.547Z,22.21
2018-07-20T07:51:45.738Z,22.25
2018-07-20T07:52:45.672Z,22.22
2018-07-20T07:53:45.762Z,22.21
2018-07-20T07:54:46.085Z,22.23
2018-07-20T07:55:45.694Z,22.22
2018-07-20T07:56:45.626Z,22.22
2018-07-20T07:57:45.519Z,22.21
2018-07-20T07:58:45.470Z,22.23
2018-07-20T07:59:45.699Z,22.21
2018-07-20T08:00:45.692Z,22.22
2018-07-20T08:01:45.696Z,22.23
2018-07-20T08:02:45.743Z,22.21
2018-07-20T08:03:45.505Z,22.23
2018-07-20T08:04:45.517Z,22.22
2018-07-20T08:05:45.815Z,22.21
2018-07-20T08:06:45.447Z,22.23
2018-07-20T08:07:45.687Z,22.22
2018-07-20T08:08:45.591Z,22.23
2018-07-20T08:09:46.157Z,22.23
2018-07-20T08:10:45.641Z,22.22
2018-07-20T08:11:45.986Z,22.22
2018-07-20T08:12:45.630Z,22.19
2018-07-20T08:13:45.668Z,22.22
2018-07-20T08:14:45.715Z,22.21
2018-07-20T08:15:45.884Z,22.22
2018-07-20T08:16:45.562Z,22.21
2018-07-20T08:17:45.821Z,22.22
2018-07-20T08:18:45.672Z,22.19
2018-07-20T08:19:45.747Z,22.23
2018-07-20T08:20:45.887Z,22.23
2018-07-20T08:21:45.516Z,22.21
2018-07-20T08:22:46.086Z,22.25
2018-07-20T08:23:45.759Z,22.22
2018-07-20T08:24:46.218Z,22.22
2018-07-20T08:25:45.893Z,22.19
2018-07-20T08:26:45.879Z,22.22
2018-07-20T08:27:45.709Z,22.22
2018-07-20T08:28:45.531Z,22.21
2018-07-20T08:29:45.856Z,22.22
2018-07-20T08:30:45.479Z,22.23
2018-07-20T08:31:45.536Z,22.21
2018-07-20T08:32:45.673Z,22.21
2018-07-20T08:33:45.690Z,22.21
2018-07-20T08:34:45.711Z,22.22
2018-07-20T08:35:45.703Z,22.22
2018-07-20T08:36:45.820Z,22.22
2018-07-20T08:37:45.675Z,22.23
2018-07-20T08:38:45.764Z,22.21
2018-07-20T08:39:45.544Z,22.19
2018-07-20T08:40:45.743Z,22.23
2018-07-20T08:41:45.887Z,22.22
2018-07-20T08:42:45.533Z,22.23
2018-07-20T08:43:45.713Z,22.22
2018-07-20T08:44:45.625Z,22.22
2018-07-20T08:45:45.963Z,22.21
2018-07-20T08:46:45.654Z,22.21
2018-07-20T08:47:45.542Z,22.21
2018-07-20T08:48:45.741Z,22.21
2018-07-20T08:49:45.716Z,22.22
2018-07-20T08:50:45.704Z,22.21
2018-07-20T08:51:45.624Z,22.21
2018-07-20T08:52:45.677Z,22.22
2018-07-20T08:53:45.855Z,22.22
2018-07-20T08:54:45.504Z,22.21
2018-07-20T08:55:45.461Z,22.21
2018-07-20T08:56:45.681Z,22.21
2018-07-20T08:57:45.515Z,22.22
2018-07-20T08:58:45.650Z,22.23
2018-07-20T08:59:45.707Z,22.21
2018-07-20T09:00:45.877Z,22.21
2018-07-20T09:01:45.766Z,22.19
2018-07-20T09:02:45.729Z,22.22
2018-07-20T09:03:45.800Z,22.21
2018-07-20T09:04:45.860Z,22.21
2018-07-20T09:05:45.678Z,22.18
2018-07-20T09:06:55.686Z,22.21
2018-07-20T09:07:45.830Z,22.21
2018-07-20T09:08:45.508Z,22.21
2018-07-20T09:09:45.596Z,22.21
2018-07-20T09:10:45.638Z,22.21
2018-07-20T09:11:45.674Z,22.21
2018-07-20T09:12:45.631Z,22.23
2018-07-20T09:13:47.340Z,22.22
2018-07-20T09:14:45.599Z,22.25
2018-07-20T09:15:45.601Z,22.21
2018-07-20T09:16:45.762Z,22.21
2018-07-20T09:17:45.777Z,22.22
2018-07-20T09:18:45.713Z,22.21
2018-07-20T09:19:45.589Z,22.22
2018-07-20T09:20:46.891Z,22.21
2018-07-20T09:21:45.821Z,22.21
2018-07-20T09:22:45.696Z,22.22
2018-07-20T09:23:45.583Z,22.21
2018-07-20T09:24:45.542Z,22.21
2018-07-20T09:25:45.760Z,22.22
2018-07-20T09:26:45.704Z,22.22
2018-07-20T09:27:45.618Z,22.21
2018-07-20T09:28:45.554Z,22.21
2018-07-20T09:29:45.715Z,22.23
2018-07-20T09:30:45.698Z,22.22
2018-07-20T09:31:45.617Z,22.19
2018-07-20T09:32:45.731Z,22.22
2018-07-20T09:33:45.594Z,22.21
2018-07-20T09:34:45.517Z,22.22
2018-07-20T09:35:45.603Z,22.21
2018-07-20T09:36:45.639Z,22.19
2018-07-20T09:37:45.456Z,22.22
2018-07-20T09:38:45.708Z,22.21
2018-07-20T09:39:45.653Z,22.21
2018-07-20T09:40:45.634Z,22.21
2018-07-20T09:41:45.647Z,22.19
2018-07-20T09:42:45.749Z,22.22
2018-07-20T09:43:45.680Z,22.21
2018-07-20T09:44:45.807Z,22.21
2018-07-20T09:45:45.502Z,22.19
2018-07-20T09:46:45.696Z,22.21
2018-07-20T09:47:45.659Z,22.21
2018-07-20T09:48:45.468Z,22.23
2018-07-20T09:49:45.723Z,22.22
2018-07-20T09:50:45.587Z,22.22
2018-07-20T09:51:45.438Z,22.23
2018-07-20T09:52:45.854Z,22.22
2018-07-20T09:53:45.469Z,22.23
2018-07-20T09:54:45.763Z,22.21
2018-07-20T09:55:45.692Z,22.23
2018-07-20T09:56:45.807Z,22.22
2018-07-20T09:57:45.566Z,22.23
2018-07-20T09:58:45.714Z,22.21
2018-07-20T09:59:45.944Z,22.21
2018-07-20T10:00:45.646Z,22.21
2018-07-20T10:01:45.497Z,22.22
2018-07-20T10:02:45.692Z,22.19
2018-07-20T10:03:45.558Z,22.23
2018-07-20T10:04:45.697Z,22.21
2018-07-20T10:05:45.787Z,22.22
2018-07-20T10:06:45.712Z,22.22
2018-07-20T10:07:45.647Z,22.22
2018-07-20T10:08:45.682Z,22.22
2018-07-20T10:09:45.597Z,22.21
2018-07-20T10:10:45.859Z,22.22
2018-07-20T10:11:45.654Z,22.21
2018-07-20T10:12:46.266Z,22.22
2018-07-20T10:13:45.633Z,22.23
2018-07-20T10:14:45.710Z,22.22
2018-07-20T10:15:45.726Z,22.21
2018-07-20T10:16:45.871Z,22.22
2018-07-20T10:17:45.638Z,22.21
2018-07-20T10:18:55.987Z,22.21
2018-07-20T10:19:45.637Z,22.21
2018-07-20T10:20:45.709Z,22.23
2018-07-20T10:21:45.650Z,22.22
2018-07-20T10:22:45.747Z,22.21
2018-07-20T10:23:45.529Z,22.23
2018-07-20T10:24:45.663Z,22.22
2018-07-20T10:25:46.631Z,22.22
2018-07-20T10:26:45.476Z,22.23
2018-07-20T10:28:45.679Z,22.25
2018-07-20T10:29:45.414Z,22.23
2018-07-20T10:30:46.253Z,22.21
2018-07-20T10:31:45.641Z,22.25
2018-07-20T10:32:45.471Z,22.21
2018-07-20T10:33:45.689Z,22.22
2018-07-20T10:34:45.663Z,22.22
2018-07-20T10:35:45.691Z,22.22
2018-07-20T10:36:46.022Z,22.22
2018-07-20T10:37:45.754Z,22.23
2018-07-20T10:38:45.438Z,22.23
2018-07-20T10:39:45.603Z,22.21
2018-07-20T10:40:45.683Z,22.23
2018-07-20T10:41:45.520Z,22.22
2018-07-20T10:42:45.481Z,22.23
2018-07-20T10:43:45.744Z,22.22
2018-07-20T10:44:45.641Z,22.22
2018-07-20T10:45:45.635Z,22.23
2018-07-20T10:46:45.644Z,22.22
2018-07-20T10:47:45.497Z,22.23
2018-07-20T10:48:45.867Z,22.23
2018-07-20T10:49:45.539Z,22.23
2018-07-20T10:50:45.558Z,22.25
2018-07-20T10:51:45.547Z,22.22
2018-07-20T10:52:45.477Z,22.23
2018-07-20T10:53:45.513Z,22.23
2018-07-20T10:54:45.638Z,22.23
2018-07-20T10:55:45.596Z,22.21
2018-07-20T10:56:45.573Z,22.19
2018-07-20T10:57:45.564Z,22.23
2018-07-20T10:58:45.825Z,22.25
2018-07-20T10:59:45.757Z,22.22
2018-07-20T11:00:45.521Z,22.23
2018-07-20T11:01:46.213Z,22.22
2018-07-20T11:02:45.670Z,22.22
2018-07-20T11:03:45.783Z,22.21
2018-07-20T11:04:45.657Z,22.23
2018-07-20T11:05:45.450Z,22.23
2018-07-20T11:06:45.496Z,22.23
2018-07-20T11:07:45.767Z,22.25
2018-07-20T11:08:45.696Z,22.22
2018-07-20T11:09:45.510Z,22.23
2018-07-20T11:10:45.502Z,22.25
2018-07-20T11:11:45.701Z,22.25
2018-07-20T11:12:45.656Z,22.23
2018-07-20T11:13:46.249Z,22.22
2018-07-20T11:14:45.651Z,22.21
2018-07-20T11:15:45.544Z,22.21
2018-07-20T11:16:45.604Z,22.22
2018-07-20T11:17:45.727Z,22.19
2018-07-20T11:18:45.689Z,22.21
2018-07-20T11:19:45.815Z,22.23
2018-07-20T11:20:45.602Z,22.22
2018-07-20T11:21:45.900Z,22.22
2018-07-20T11:22:45.721Z,22.21
2018-07-20T11:23:45.559Z,22.25
2018-07-20T11:24:45.769Z,22.25
2018-07-20T11:25:45.787Z,22.23
2018-07-20T11:26:45.772Z,22.23
2018-07-20T11:27:45.727Z,22.23
2018-07-20T11:28:45.569Z,22.23
2018-07-20T11:29:45.797Z,22.25
2018-07-20T11:30:45.744Z,22.25
2018-07-20T11:31:45.665Z,22.25
2018-07-20T11:32:45.426Z,22.23
2018-07-20T11:33:45.527Z,22.23
2018-07-20T11:34:46.307Z,22.22
2018-07-20T11:35:45.494Z,22.22
2018-07-20T11:36:45.747Z,22.21
2018-07-20T11:37:45.634Z,22.23
2018-07-20T11:38:45.587Z,22.23
2018-07-20T11:39:45.585Z,22.21
2018-07-20T11:40:45.789Z,22.23
2018-07-20T11:41:45.435Z,22.23
2018-07-20T11:42:45.980Z,22.25
2018-07-20T11:43:45.508Z,22.22
2018-07-20T11:44:45.675Z,22.25
2018-07-20T11:45:45.572Z,22.25
2018-07-20T11:46:45.707Z,22.25
2018-07-20T11:47:45.790Z,22.22
2018-07-20T11:48:45.731Z,22.23
2018-07-20T11:49:45.503Z,22.23
2018-07-20T11:50:45.387Z,22.22
2018-07-20T11:51:45.719Z,22.26
2018-07-20T11:52:45.707Z,22.25
2018-07-20T11:53:45.473Z,22.22
2018-07-20T11:54:45.592Z,22.23
2018-07-20T11:55:45.609Z,22.23
2018-07-20T11:56:45.443Z,22.26
2018-07-20T11:57:45.478Z,22.23
2018-07-20T11:58:45.429Z,22.25
2018-07-20T12:00:07.449Z,22.21
2018-07-20T12:00:45.710Z,22.23
2018-07-20T12:01:45.769Z,22.25
2018-07-20T12:02:45.482Z,22.21
2018-07-20T12:03:45.692Z,22.23
2018-07-20T12:04:45.559Z,22.22
2018-07-20T12:05:45.519Z,22.23
2018-07-20T12:06:45.883Z,22.23
2018-07-20T12:07:45.474Z,22.25
2018-07-20T12:08:45.699Z,22.22
2018-07-20T12:09:45.473Z,22.22
2018-07-20T12:10:45.644Z,22.22
2018-07-20T12:11:45.457Z,22.22
2018-07-20T12:12:45.531Z,22.22
2018-07-20T12:13:45.737Z,22.21
2018-07-20T12:14:45.485Z,22.22
2018-07-20T12:15:45.466Z,22.25
2018-07-20T12:16:45.733Z,22.22
2018-07-20T12:17:45.754Z,22.22
2018-07-20T12:18:45.559Z,22.25
2018-07-20T12:19:45.704Z,22.23
2018-07-20T12:20:45.644Z,22.23
2018-07-20T12:21:45.726Z,22.25
2018-07-20T12:22:45.577Z,22.21
2018-07-20T12:23:45.712Z,22.22
2018-07-20T12:24:46.056Z,22.22
2018-07-20T12:25:45.777Z,22.22
2018-07-20T12:26:45.483Z,22.23
2018-07-20T12:27:45.771Z,22.23
2018-07-20T12:28:45.637Z,22.23
2018-07-20T12:29:45.750Z,22.22
2018-07-20T12:30:45.563Z,22.25
2018-07-20T12:31:45.877Z,22.23
2018-07-20T12:32:45.587Z,22.22
2018-07-20T12:33:45.696Z,22.22
2018-07-20T12:34:45.803Z,22.21
2018-07-20T12:35:45.655Z,22.23
2018-07-20T12:36:45.895Z,22.22
2018-07-20T12:37:45.880Z,22.23
2018-07-20T12:39:07.753Z,22.23
2018-07-20T12:39:45.690Z,22.23
2018-07-20T12:40:45.639Z,22.22
2018-07-20T12:41:45.439Z,22.25
2018-07-20T12:42:45.512Z,22.23
2018-07-20T12:43:45.587Z,22.26
2018-07-20T12:44:45.696Z,22.23
2018-07-20T12:45:45.805Z,22.25
2018-07-20T12:46:46.249Z,22.23
2018-07-20T12:47:45.578Z,22.23
2018-07-20T12:48:45.662Z,22.22
2018-07-20T12:49:45.491Z,22.23
2018-07-20T12:50:45.451Z,22.22
2018-07-20T12:51:45.481Z,22.23
2018-07-20T12:52:45.843Z,22.25
2018-07-20T12:53:45.430Z,22.26
2018-07-20T12:54:45.471Z,22.29
2018-07-20T12:55:45.837Z,22.32